createdAt,value
2022-12-20T00:01:33.204Z,13.90
2022-12-20T00:04:02.581Z,13.98
2022-12-20T00:06:29.466Z,14.00
2022-12-20T00:08:57.449Z,13.98
2022-12-20T00:11:24.790Z,13.98
2022-12-20T00:13:51.816Z,13.95
2022-12-20T00:16:20.455Z,13.99
2022-12-20T00:18:47.731Z,13.97
2022-12-20T00:21:15.354Z,13.95
2022-12-20T00:23:42.619Z,14.00
2022-12-20T00:26:11.649Z,13.90
2022-12-20T00:28:38.915Z,13.96
2022-12-20T00:31:06.518Z,13.87
2022-12-20T00:33:34.390Z,13.92
2022-12-20T00:36:01.814Z,13.91
2022-12-20T00:38:28.716Z,13.91
2022-12-20T00:41:05.989Z,13.82
2022-12-20T00:43:33.254Z,13.89
2022-12-20T00:46:00.330Z,13.90
2022-12-20T00:48:27.438Z,13.86
2022-12-20T00:50:58.243Z,13.81
2022-12-20T00:53:26.718Z,13.79
2022-12-20T00:55:53.556Z,13.73
2022-12-20T00:58:20.411Z,13.79
2022-12-20T01:00:53.873Z,13.79
2022-12-20T01:03:23.668Z,13.80
2022-12-20T01:05:51.359Z,13.80
2022-12-20T01:08:17.962Z,13.77
2022-12-20T01:10:44.538Z,13.70
2022-12-20T01:13:11.266Z,13.72
2022-12-20T01:15:37.851Z,13.70
2022-12-20T01:18:04.521Z,13.75
2022-12-20T01:20:31.092Z,13.79
2022-12-20T01:22:57.764Z,13.74
2022-12-20T01:25:25.278Z,13.83
2022-12-20T01:27:52.279Z,13.83
2022-12-20T01:30:18.944Z,13.90
2022-12-20T01:32:45.594Z,13.84
2022-12-20T01:35:12.795Z,13.93
2022-12-20T01:37:39.386Z,13.95
2022-12-20T01:40:06.448Z,13.95
2022-12-20T01:42:33.045Z,13.94
2022-12-20T01:44:59.968Z,13.92
2022-12-20T01:47:28.498Z,13.93
2022-12-20T01:49:56.126Z,13.89
2022-12-20T01:52:31.334Z,13.90
2022-12-20T01:55:04.020Z,13.90
2022-12-20T01:57:41.170Z,13.87
2022-12-20T02:00:10.012Z,13.91
2022-12-20T02:02:44.010Z,13.90
2022-12-20T02:05:11.637Z,13.89
2022-12-20T02:07:38.806Z,13.86
2022-12-20T02:10:06.495Z,13.84
2022-12-20T02:12:43.508Z,13.77
2022-12-20T02:15:22.547Z,13.77
2022-12-20T02:17:52.474Z,13.75
2022-12-20T02:20:38.556Z,13.72
2022-12-20T02:23:35.469Z,13.72
2022-12-20T02:26:19.929Z,13.73
2022-12-20T02:28:49.626Z,13.72
2022-12-20T02:31:17.635Z,13.69
2022-12-20T02:33:48.015Z,13.66
2022-12-20T02:36:16.251Z,13.65
2022-12-20T02:38:43.077Z,13.63
2022-12-20T02:41:19.672Z,13.62
2022-12-20T02:44:07.433Z,13.59
2022-12-20T02:46:35.226Z,13.52
2022-12-20T02:49:03.454Z,13.55
2022-12-20T02:51:37.160Z,13.55
2022-12-20T02:54:04.518Z,13.58
2022-12-20T02:56:31.753Z,13.59
2022-12-20T02:59:02.359Z,13.59
2022-12-20T03:01:31.926Z,13.56
2022-12-20T03:03:59.313Z,13.53
2022-12-20T03:06:25.946Z,13.43
2022-12-20T03:08:52.960Z,13.39
2022-12-20T03:11:22.331Z,13.37
2022-12-20T03:13:48.979Z,13.39
2022-12-20T03:16:15.729Z,13.39
2022-12-20T03:18:42.459Z,13.38
2022-12-20T03:21:09.442Z,13.40
2022-12-20T03:23:36.129Z,13.42
2022-12-20T03:26:02.697Z,13.43
2022-12-20T03:28:41.335Z,13.43
2022-12-20T03:31:09.781Z,13.41
2022-12-20T03:33:44.189Z,13.40
2022-12-20T03:36:11.663Z,13.34
2022-12-20T03:38:38.215Z,13.25
2022-12-20T03:41:06.567Z,13.29
2022-12-20T03:43:33.106Z,13.28
2022-12-20T03:45:59.733Z,13.26
2022-12-20T03:48:28.608Z,13.27
2022-12-20T03:50:55.462Z,13.26
2022-12-20T03:53:22.050Z,13.29
2022-12-20T03:55:48.739Z,13.16
2022-12-20T03:58:15.913Z,13.18
2022-12-20T04:00:42.786Z,13.14
2022-12-20T04:03:47.853Z,13.18
2022-12-20T04:06:14.842Z,13.19
2022-12-20T04:08:41.975Z,13.17
2022-12-20T04:11:19.227Z,13.04
2022-12-20T04:13:54.565Z,13.10
2022-12-20T04:16:23.112Z,13.10
2022-12-20T04:18:50.008Z,13.06
2022-12-20T04:21:28.832Z,13.06
2022-12-20T04:23:58.320Z,13.05
2022-12-20T04:26:31.259Z,13.06
2022-12-20T04:28:59.876Z,13.03
2022-12-20T04:31:27.008Z,12.95
2022-12-20T04:33:54.554Z,12.71
2022-12-20T04:36:21.813Z,12.65
2022-12-20T04:38:50.983Z,12.45
2022-12-20T04:41:23.998Z,12.50
2022-12-20T04:43:57.472Z,12.56
2022-12-20T04:46:30.240Z,12.59
2022-12-20T04:48:59.830Z,12.52
2022-12-20T04:51:28.463Z,12.58
2022-12-20T04:53:55.308Z,12.58
2022-12-20T04:56:34.308Z,12.71
2022-12-20T04:59:07.811Z,12.73
2022-12-20T05:01:35.250Z,12.80
2022-12-20T05:04:02.310Z,12.86
2022-12-20T05:06:32.526Z,12.90
2022-12-20T05:08:59.222Z,12.94
2022-12-20T05:11:26.386Z,12.93
2022-12-20T05:13:53.201Z,12.90
2022-12-20T05:16:21.313Z,12.80
2022-12-20T05:18:49.552Z,12.80
2022-12-20T05:21:35.813Z,12.82
2022-12-20T05:24:22.062Z,12.84
2022-12-20T05:26:56.466Z,12.82
2022-12-20T05:29:23.102Z,12.84
2022-12-20T05:31:49.844Z,12.77
2022-12-20T05:34:16.601Z,12.79
2022-12-20T05:36:48.424Z,12.77
2022-12-20T05:39:15.244Z,12.78
2022-12-20T05:41:44.527Z,12.80
2022-12-20T05:44:11.360Z,12.82
2022-12-20T05:46:42.085Z,12.82
2022-12-20T05:49:14.116Z,12.82
2022-12-20T05:51:40.788Z,12.76
2022-12-20T05:54:17.743Z,12.75
2022-12-20T05:56:50.870Z,12.72
2022-12-20T05:59:22.424Z,12.73
2022-12-20T06:01:49.229Z,12.74
2022-12-20T06:04:16.029Z,12.70
2022-12-20T06:06:43.754Z,12.70
2022-12-20T06:09:13.626Z,12.60
2022-12-20T06:11:48.121Z,12.63
2022-12-20T06:14:15.306Z,12.62
2022-12-20T06:16:45.687Z,12.60
2022-12-20T06:19:19.430Z,12.55
2022-12-20T06:21:48.697Z,12.58
2022-12-20T06:24:18.849Z,12.51
2022-12-20T06:26:45.969Z,12.56
2022-12-20T06:29:14.381Z,12.50
2022-12-20T06:31:46.173Z,12.54
2022-12-20T06:34:13.778Z,12.53
2022-12-20T06:36:41.959Z,12.55
2022-12-20T06:39:14.523Z,12.59
2022-12-20T06:41:49.826Z,12.54
2022-12-20T06:44:16.622Z,12.53
2022-12-20T06:46:43.235Z,12.52
2022-12-20T06:49:10.298Z,12.52
2022-12-20T06:51:37.280Z,12.58
2022-12-20T06:54:04.982Z,12.59
2022-12-20T06:56:40.871Z,12.60
2022-12-20T06:59:10.074Z,12.63
2022-12-20T07:01:37.100Z,12.62
2022-12-20T07:04:04.036Z,12.63
2022-12-20T07:06:30.633Z,12.57
2022-12-20T07:08:57.226Z,12.56
2022-12-20T07:11:23.798Z,12.56
2022-12-20T07:13:56.779Z,12.57
2022-12-20T07:16:23.859Z,12.59
2022-12-20T07:18:52.575Z,12.54
2022-12-20T07:21:19.758Z,12.52
2022-12-20T07:23:46.938Z,12.51
2022-12-20T07:26:14.360Z,12.48
2022-12-20T07:28:41.067Z,12.46
2022-12-20T07:31:07.805Z,12.54
2022-12-20T07:33:34.622Z,12.51
2022-12-20T07:36:02.196Z,12.51
2022-12-20T07:38:29.312Z,12.54
2022-12-20T07:40:56.095Z,12.59
2022-12-20T07:43:22.742Z,12.63
2022-12-20T07:45:53.763Z,12.69
2022-12-20T07:48:21.951Z,12.74
2022-12-20T07:50:54.364Z,12.76
2022-12-20T07:53:22.563Z,12.81
2022-12-20T07:55:49.307Z,12.81
2022-12-20T07:58:17.369Z,12.81
2022-12-20T08:00:44.170Z,12.86
2022-12-20T08:03:13.895Z,12.90
2022-12-20T08:05:43.283Z,12.90
2022-12-20T08:08:09.994Z,12.90
2022-12-20T08:10:37.106Z,13.01
2022-12-20T08:13:04.339Z,13.13
2022-12-20T08:15:30.986Z,13.16
2022-12-20T08:17:57.908Z,13.19
2022-12-20T08:20:24.626Z,13.19
2022-12-20T08:22:51.355Z,13.20
2022-12-20T08:25:17.878Z,13.18
2022-12-20T08:27:44.873Z,13.20
2022-12-20T08:30:11.674Z,13.25
2022-12-20T08:32:38.330Z,13.28
2022-12-20T08:35:05.242Z,13.27
2022-12-20T08:37:31.892Z,13.31
2022-12-20T08:39:58.445Z,13.32
2022-12-20T08:42:25.140Z,13.28
2022-12-20T08:44:51.744Z,13.39
2022-12-20T08:47:18.406Z,13.48
2022-12-20T08:49:47.922Z,13.62
2022-12-20T08:52:15.237Z,13.62
2022-12-20T08:54:41.806Z,13.67
2022-12-20T08:57:09.499Z,13.69
2022-12-20T08:59:36.137Z,13.89
2022-12-20T09:02:02.862Z,13.95
2022-12-20T09:04:29.654Z,14.08
2022-12-20T09:06:56.217Z,14.16
2022-12-20T09:09:22.859Z,14.21
2022-12-20T09:11:49.480Z,14.35
2022-12-20T09:14:16.165Z,14.39
2022-12-20T09:16:42.759Z,14.50
2022-12-20T09:19:12.149Z,14.59
2022-12-20T09:21:38.750Z,14.67
2022-12-20T09:24:06.255Z,14.74
2022-12-20T09:26:35.341Z,14.78
2022-12-20T09:29:02.208Z,14.77
2022-12-20T09:31:28.928Z,14.78
2022-12-20T09:33:56.516Z,14.82
2022-12-20T09:36:23.927Z,14.99
2022-12-20T09:38:51.250Z,15.15
2022-12-20T09:41:30.076Z,15.28
2022-12-20T09:43:57.923Z,15.34
2022-12-20T09:46:25.160Z,15.41
2022-12-20T09:48:52.425Z,15.52
2022-12-20T09:51:21.952Z,15.54
2022-12-20T09:53:57.833Z,15.76
2022-12-20T09:56:30.173Z,15.95
2022-12-20T09:59:01.865Z,16.02
2022-12-20T10:01:36.243Z,16.05
2022-12-20T10:04:15.680Z,16.10
2022-12-20T10:06:54.297Z,16.14
2022-12-20T10:09:29.901Z,16.27
2022-12-20T10:11:56.878Z,16.30
2022-12-20T10:14:42.014Z,16.30
2022-12-20T10:17:12.743Z,16.19
2022-12-20T10:19:45.200Z,16.25
2022-12-20T10:22:19.469Z,16.28
2022-12-20T10:24:49.488Z,16.36
2022-12-20T10:27:18.655Z,16.48
2022-12-20T10:29:46.789Z,16.51
2022-12-20T10:32:14.720Z,16.49
2022-12-20T10:34:56.655Z,16.07
2022-12-20T10:37:23.336Z,15.97
2022-12-20T10:39:51.035Z,16.12
2022-12-20T10:42:30.647Z,16.21
2022-12-20T10:44:57.849Z,16.25
2022-12-20T10:47:39.723Z,16.20
2022-12-20T10:50:08.596Z,16.18
2022-12-20T10:52:35.146Z,16.34
2022-12-20T10:55:01.763Z,16.40
2022-12-20T10:57:29.400Z,16.51
2022-12-20T10:59:57.316Z,16.48
2022-12-20T11:02:25.416Z,16.39
2022-12-20T11:05:02.392Z,16.51
2022-12-20T11:07:33.473Z,16.62
2022-12-20T11:10:01.545Z,16.70
2022-12-20T11:12:28.368Z,16.68
2022-12-20T11:15:09.258Z,16.72
2022-12-20T11:17:43.548Z,16.72
2022-12-20T11:20:28.729Z,16.85
2022-12-20T11:23:14.739Z,16.90
2022-12-20T11:25:47.327Z,16.84
2022-12-20T11:28:36.631Z,16.88
2022-12-20T11:31:23.509Z,17.04
2022-12-20T11:34:03.407Z,17.08
2022-12-20T11:36:39.022Z,17.11
2022-12-20T11:39:05.702Z,17.14
2022-12-20T11:41:38.058Z,16.96
2022-12-20T11:44:27.229Z,17.18
2022-12-20T11:47:12.247Z,17.21
2022-12-20T11:49:59.805Z,17.25
2022-12-20T11:52:26.461Z,17.32
2022-12-20T11:54:59.256Z,17.24
2022-12-20T11:57:54.841Z,17.34
2022-12-20T12:00:19.857Z,17.51
2022-12-20T12:02:58.793Z,17.67
2022-12-20T12:05:45.841Z,17.81
2022-12-20T12:08:23.493Z,17.95
2022-12-20T12:10:56.454Z,18.04
2022-12-20T12:13:31.218Z,18.12
2022-12-20T12:16:01.667Z,18.10
2022-12-20T12:18:30.130Z,18.16
2022-12-20T12:21:09.012Z,18.22
2022-12-20T12:23:42.398Z,18.21
2022-12-20T12:26:24.223Z,18.23
2022-12-20T12:28:55.332Z,18.29
2022-12-20T12:31:31.251Z,18.35
2022-12-20T12:34:06.738Z,18.34
2022-12-20T12:37:05.667Z,18.33
2022-12-20T12:39:44.290Z,18.37
2022-12-20T12:42:10.942Z,18.37
2022-12-20T12:44:54.567Z,18.31
2022-12-20T12:47:30.407Z,18.29
2022-12-20T12:49:57.417Z,18.31
2022-12-20T12:52:44.666Z,18.30
2022-12-20T12:55:29.747Z,18.33
2022-12-20T12:57:57.302Z,18.30
2022-12-20T13:00:42.696Z,18.26
2022-12-20T13:03:15.976Z,18.32
2022-12-20T13:05:43.069Z,18.35
2022-12-20T13:08:17.351Z,18.32
2022-12-20T13:10:44.079Z,18.29
2022-12-20T13:13:21.169Z,18.31
2022-12-20T13:15:48.890Z,18.33
2022-12-20T13:18:15.533Z,18.33
2022-12-20T13:20:42.601Z,18.27
2022-12-20T13:23:09.237Z,18.28
2022-12-20T13:25:35.878Z,18.34
2022-12-20T13:28:22.698Z,18.35
2022-12-20T13:31:12.370Z,18.27
2022-12-20T13:33:39.152Z,18.30
2022-12-20T13:36:26.269Z,18.30
2022-12-20T13:38:54.513Z,18.28
2022-12-20T13:41:32.737Z,18.28
2022-12-20T13:44:10.753Z,18.25
2022-12-20T13:46:42.581Z,18.20
2022-12-20T13:49:11.981Z,18.17
2022-12-20T13:51:38.503Z,18.17
2022-12-20T13:54:06.697Z,18.13
2022-12-20T13:56:37.388Z,18.08
2022-12-20T13:59:19.108Z,18.08
2022-12-20T14:01:50.428Z,18.05
2022-12-20T14:04:18.219Z,18.00
2022-12-20T14:06:45.201Z,17.99
2022-12-20T14:09:32.160Z,17.96
2022-12-20T14:12:06.558Z,17.96
2022-12-20T14:15:01.148Z,17.98
2022-12-20T14:17:31.301Z,17.98
2022-12-20T14:20:17.455Z,18.00
2022-12-20T14:23:05.044Z,17.96
2022-12-20T14:25:38.946Z,17.97
2022-12-20T14:28:11.090Z,17.96
2022-12-20T14:30:42.648Z,17.99
2022-12-20T14:33:19.381Z,17.94
2022-12-20T14:35:47.595Z,17.96
2022-12-20T14:38:20.468Z,17.98
2022-12-20T14:40:53.639Z,17.96
2022-12-20T14:43:25.713Z,17.94
2022-12-20T14:46:06.944Z,17.91
2022-12-20T14:48:33.582Z,17.90
2022-12-20T14:51:00.156Z,17.88
2022-12-20T14:53:30.234Z,17.84
2022-12-20T14:55:56.858Z,17.78
2022-12-20T14:58:23.461Z,17.79
2022-12-20T15:00:57.849Z,17.77
2022-12-20T15:03:25.643Z,17.73
2022-12-20T15:05:53.372Z,17.67
2022-12-20T15:08:27.542Z,17.62
2022-12-20T15:11:12.441Z,17.58
2022-12-20T15:13:42.699Z,17.56
2022-12-20T15:16:12.471Z,17.51
2022-12-20T15:18:39.161Z,17.47
2022-12-20T15:21:10.564Z,17.45
2022-12-20T15:23:41.838Z,17.41
2022-12-20T15:26:12.355Z,17.36
2022-12-20T15:28:38.945Z,17.26
2022-12-20T15:31:05.576Z,17.26
2022-12-20T15:33:33.454Z,17.22
2022-12-20T15:36:00.045Z,17.19
2022-12-20T15:38:54.936Z,17.13
2022-12-20T15:41:24.730Z,17.14
2022-12-20T15:43:53.517Z,17.12
2022-12-20T15:46:20.212Z,17.01
2022-12-20T15:48:46.820Z,17.06
2022-12-20T15:51:33.619Z,17.04
2022-12-20T15:54:01.563Z,17.01
2022-12-20T15:56:28.489Z,16.98
2022-12-20T15:58:55.766Z,17.01
2022-12-20T16:01:39.782Z,16.98
2022-12-20T16:04:08.162Z,16.98
2022-12-20T16:06:34.766Z,16.96
2022-12-20T16:09:01.405Z,16.94
2022-12-20T16:11:29.619Z,16.93
2022-12-20T16:13:57.093Z,16.92
2022-12-20T16:16:28.221Z,16.89
2022-12-20T16:18:54.902Z,16.90
2022-12-20T16:21:22.754Z,16.88
2022-12-20T16:23:52.600Z,16.84
2022-12-20T16:26:22.018Z,16.85
2022-12-20T16:28:49.595Z,16.80
2022-12-20T16:31:22.023Z,16.80
2022-12-20T16:33:49.325Z,16.80
2022-12-20T16:36:16.209Z,16.77
2022-12-20T16:38:42.832Z,16.75
2022-12-20T16:41:16.971Z,16.75
2022-12-20T16:43:43.993Z,16.75
2022-12-20T16:46:16.647Z,16.74
2022-12-20T16:48:43.854Z,16.74
2022-12-20T16:51:29.913Z,16.67
2022-12-20T16:56:44.477Z,16.66
2022-12-20T16:59:20.636Z,16.66
2022-12-20T17:01:48.696Z,16.64
2022-12-20T17:04:16.537Z,16.55
2022-12-20T17:06:43.340Z,16.59
2022-12-20T17:11:54.439Z,16.55
2022-12-20T17:14:21.029Z,16.53
2022-12-20T17:16:47.789Z,16.52
2022-12-20T17:19:14.409Z,16.53
2022-12-20T17:24:26.745Z,16.49
2022-12-20T17:26:53.338Z,16.48
2022-12-20T17:29:20.558Z,16.47
2022-12-20T17:31:47.922Z,16.45
2022-12-20T17:34:19.155Z,16.43
2022-12-20T17:36:46.457Z,16.43
2022-12-20T17:39:13.632Z,16.40
2022-12-20T17:41:42.554Z,16.38
2022-12-20T17:44:17.570Z,16.37
2022-12-20T17:46:44.239Z,16.37
2022-12-20T17:49:10.862Z,16.35
2022-12-20T17:51:37.498Z,16.33
2022-12-20T17:54:04.113Z,16.26
2022-12-20T17:56:31.857Z,16.26
2022-12-20T17:58:59.050Z,16.27
2022-12-20T18:01:26.998Z,16.26
2022-12-20T18:04:04.402Z,16.23
2022-12-20T18:06:32.688Z,16.25
2022-12-20T18:08:59.945Z,16.25
2022-12-20T18:11:28.256Z,16.21
2022-12-20T18:13:56.366Z,16.21
2022-12-20T18:16:25.268Z,16.20
2022-12-20T18:18:53.428Z,16.20
2022-12-20T18:21:20.698Z,16.20
2022-12-20T18:23:47.907Z,16.21
2022-12-20T18:26:20.669Z,16.17
2022-12-20T18:28:48.113Z,16.19
2022-12-20T18:31:16.242Z,16.16
2022-12-20T18:33:42.854Z,16.18
2022-12-20T18:36:10.852Z,16.17
2022-12-20T18:38:38.710Z,16.16
2022-12-20T18:41:06.380Z,16.15
2022-12-20T18:43:33.626Z,16.15
2022-12-20T18:46:04.414Z,16.04
2022-12-20T18:48:31.460Z,16.08
2022-12-20T18:51:03.062Z,16.02
2022-12-20T18:53:31.444Z,16.05
2022-12-20T18:56:00.889Z,16.06
2022-12-20T18:58:27.519Z,16.07
2022-12-20T19:00:57.143Z,16.08
2022-12-20T19:03:23.864Z,16.03
2022-12-20T19:05:55.121Z,16.03
2022-12-20T19:08:22.303Z,15.97
2022-12-20T19:10:49.297Z,15.98
2022-12-20T19:13:17.777Z,15.96
2022-12-20T19:15:44.981Z,16.02
2022-12-20T19:18:11.578Z,16.03
2022-12-20T19:20:39.057Z,16.00
2022-12-20T19:23:05.735Z,16.00
2022-12-20T19:25:35.805Z,16.03
2022-12-20T19:28:02.890Z,16.03
2022-12-20T19:30:30.147Z,16.06
2022-12-20T19:32:56.966Z,16.05
2022-12-20T19:35:54.034Z,16.06
2022-12-20T19:38:10.171Z,16.05
2022-12-20T19:40:36.908Z,16.01
2022-12-20T19:43:03.581Z,16.02
2022-12-20T19:45:30.171Z,16.02
2022-12-20T19:47:56.820Z,15.91
2022-12-20T19:50:23.426Z,15.90
2022-12-20T19:52:51.456Z,15.82
2022-12-20T19:55:18.146Z,15.81
2022-12-20T19:57:44.815Z,15.80
2022-12-20T20:00:11.721Z,15.79
2022-12-20T20:02:38.480Z,15.80
2022-12-20T20:05:11.080Z,15.81
2022-12-20T20:07:41.256Z,15.76
2022-12-20T20:10:08.435Z,15.77
2022-12-20T20:12:38.327Z,15.75
2022-12-20T20:15:05.234Z,15.73
2022-12-20T20:17:31.794Z,15.71
2022-12-20T20:19:58.396Z,15.64
2022-12-20T20:22:25.431Z,15.63
2022-12-20T20:24:52.145Z,15.63
2022-12-20T20:27:18.684Z,15.58
2022-12-20T20:29:45.317Z,15.54
2022-12-20T20:32:11.909Z,15.41
2022-12-20T20:34:38.604Z,15.42
2022-12-20T20:37:05.240Z,15.42
2022-12-20T20:39:31.914Z,15.39
2022-12-20T20:41:58.566Z,15.35
2022-12-20T20:44:25.206Z,15.35
2022-12-20T20:46:51.820Z,15.12
2022-12-20T20:49:19.745Z,14.97
2022-12-20T20:51:46.321Z,15.03
2022-12-20T20:54:13.269Z,14.96
2022-12-20T20:56:39.809Z,15.02
2022-12-20T20:59:10.516Z,15.05
2022-12-20T21:01:42.067Z,15.10
2022-12-20T21:04:08.746Z,15.13
2022-12-20T21:06:41.025Z,15.15
2022-12-20T21:09:08.788Z,15.19
2022-12-20T21:11:37.010Z,15.19
2022-12-20T21:14:03.955Z,14.97
2022-12-20T21:16:30.624Z,15.05
2022-12-20T21:18:58.461Z,15.04
2022-12-20T21:21:26.134Z,15.02
2022-12-20T21:23:52.947Z,15.03
2022-12-20T21:26:20.601Z,14.93
2022-12-20T21:28:47.589Z,14.95
2022-12-20T21:31:15.510Z,14.95
2022-12-20T21:33:42.400Z,14.97
2022-12-20T21:36:11.693Z,14.96
2022-12-20T21:38:38.439Z,14.96
2022-12-20T21:41:06.931Z,14.73
2022-12-20T21:43:33.601Z,14.57
2022-12-20T21:46:00.503Z,14.61
2022-12-20T21:48:27.531Z,14.63
2022-12-20T21:51:10.113Z,14.68
2022-12-20T21:53:43.955Z,14.68
2022-12-20T21:56:10.941Z,14.77
2022-12-20T21:58:37.708Z,14.78
2022-12-20T22:01:05.412Z,14.81
2022-12-20T22:03:32.118Z,14.81
2022-12-20T22:05:58.831Z,14.80
2022-12-20T22:08:26.297Z,14.78
2022-12-20T22:11:19.203Z,14.79
2022-12-20T22:13:46.354Z,14.81
2022-12-20T22:16:18.543Z,14.76
2022-12-20T22:18:48.315Z,14.81
2022-12-20T22:21:15.601Z,14.82
2022-12-20T22:23:42.566Z,14.80
2022-12-20T22:26:10.574Z,14.80
2022-12-20T22:28:37.388Z,14.74
2022-12-20T22:31:11.098Z,14.74
2022-12-20T22:33:38.228Z,14.64
2022-12-20T22:36:05.107Z,14.74
2022-12-20T22:38:31.745Z,14.68
2022-12-20T22:41:10.220Z,14.68
2022-12-20T22:43:37.698Z,14.72
2022-12-20T22:46:04.813Z,14.77
2022-12-20T22:48:31.765Z,14.82
2022-12-20T22:50:59.580Z,14.77
2022-12-20T22:53:26.409Z,14.69
2022-12-20T22:55:52.979Z,14.63
2022-12-20T22:58:19.584Z,14.74
2022-12-20T23:00:47.014Z,14.67
2022-12-20T23:03:14.063Z,14.56
2022-12-20T23:05:42.283Z,14.52
2022-12-20T23:08:08.894Z,14.61
2022-12-20T23:10:53.937Z,14.63
2022-12-20T23:13:38.926Z,14.65
2022-12-20T23:16:05.607Z,14.76
2022-12-20T23:18:32.255Z,14.75
2022-12-20T23:21:17.545Z,14.77
2022-12-20T23:23:44.122Z,14.77
2022-12-20T23:26:15.196Z,14.68
2022-12-20T23:28:42.204Z,14.77
2022-12-20T23:31:09.240Z,14.82
2022-12-20T23:33:36.372Z,14.85
2022-12-20T23:36:03.637Z,14.88
2022-12-20T23:38:33.666Z,14.94
2022-12-20T23:41:00.342Z,14.96
2022-12-20T23:43:30.385Z,14.98
2022-12-20T23:46:05.091Z,14.89
2022-12-20T23:48:32.212Z,14.95
2022-12-20T23:50:59.286Z,14.95
2022-12-20T23:53:26.253Z,15.01
2022-12-20T23:56:12.061Z,14.75
2022-12-20T23:58:38.971Z,14.89
